Time;durP1;ratioP1;P1;durP2;ratioP2;P2;SDS_P1;SDS_P2;PMS_P1;PMS_P2;Temp;Humidity;BMP_temperature;BMP_pressure;BME280_temperature;BME280_humidity;BME280_pressure;Samples;Min_cycle;Max_cycle;Signal;HPM_P1;HPM_P2
2023/01/07 00:01:05;;;;;;;;;;;;;;;11.15;40.76;99554.91;5035098;28;19940;-78
2023/01/07 00:03:30;;;;;;;;;;;;;;;11.14;40.88;99558.44;5035182;28;20377;-77
2023/01/07 00:05:59;;;;;;;;;;;;;;;11.11;40.76;99558.63;5018122;28;20063;-79
2023/01/07 00:08:24;;;;;;;;;;;;;;;11.09;40.97;99566.56;5018352;28;19917;-78
2023/01/07 00:10:50;;;;;;;;;;;;;;;11.08;41.11;99561.44;5035158;28;20281;-77
2023/01/07 00:13:15;;;;;;;;;;;;;;;11.06;40.97;99561.56;5034472;28;19917;-78
2023/01/07 00:15:40;;;;;;;;;;;;;;;11.04;41.16;99564.25;5035114;28;19917;-78
2023/01/07 00:18:05;;;;;;;;;;;;;;;11.03;41.13;99565.19;5017951;28;19917;-78
2023/01/07 00:20:31;;;;;;;;;;;;;;;11.02;41.23;99560.91;5017936;28;19924;-78
2023/01/07 00:22:56;;;;;;;;;;;;;;;11.00;41.25;99562.78;5017897;28;19917;-77
2023/01/07 00:25:21;;;;;;;;;;;;;;;10.99;41.18;99566.34;5017981;28;19928;-79
2023/01/07 00:27:47;;;;;;;;;;;;;;;10.98;41.28;99564.66;5034666;28;19940;-78
2023/01/07 00:30:12;;;;;;;;;;;;;;;10.97;41.33;99557.75;5034467;28;19940;-77
2023/01/07 00:35:38;;;;;;;;;;;;;;;10.95;41.17;99570.06;4962819;28;19977;-78
2023/01/07 00:38:03;;;;;;;;;;;;;;;10.95;41.22;99571.88;4973731;28;19922;-79
2023/01/07 00:40:31;;;;;;;;;;;;;;;10.94;41.21;99567.56;4974362;28;20042;-79
2023/01/07 00:43:00;;;;;;;;;;;;;;;10.91;41.41;99571.22;4974601;28;20344;-78
2023/01/07 00:45:26;;;;;;;;;;;;;;;10.89;41.26;99570.47;4974277;28;20428;-78
2023/01/07 00:47:52;;;;;;;;;;;;;;;10.89;41.46;99561.81;4974427;28;19922;-78
2023/01/07 00:50:19;;;;;;;;;;;;;;;10.88;41.24;99562.72;4974330;28;20365;-78
2023/01/07 00:52:44;;;;;;;;;;;;;;;10.86;41.45;99558.47;4974494;28;19941;-78
2023/01/07 00:55:09;;;;;;;;;;;;;;;10.85;41.50;99559.38;4974454;28;20401;-79
2023/01/07 00:57:35;;;;;;;;;;;;;;;10.83;41.47;99565.63;4974265;28;19918;-79
2023/01/07 01:00:00;;;;;;;;;;;;;;;10.82;41.36;99566.59;4974790;28;20397;-78
2023/01/07 01:02:25;;;;;;;;;;;;;;;10.77;41.48;99566.88;4974404;28;20008;-79
2023/01/07 01:04:51;;;;;;;;;;;;;;;10.75;41.60;99568.72;4973723;28;19969;-79
2023/01/07 01:07:16;;;;;;;;;;;;;;;10.73;41.68;99561.94;4974147;28;19922;-79
2023/01/07 01:09:41;;;;;;;;;;;;;;;10.74;41.65;99558.41;4974204;28;19922;-79
2023/01/07 01:12:07;;;;;;;;;;;;;;;10.72;41.74;99555.91;5027705;28;19924;-79
2023/01/07 01:14:32;;;;;;;;;;;;;;;10.73;41.71;99559.34;5034076;28;19921;-79
2023/01/07 01:16:57;;;;;;;;;;;;;;;10.72;41.60;99565.50;5033684;28;20498;-78
2023/01/07 01:19:22;;;;;;;;;;;;;;;10.71;41.87;99566.44;5017062;28;19917;-79
2023/01/07 01:21:48;;;;;;;;;;;;;;;10.69;41.69;99579.59;5016909;28;19917;-79
2023/01/07 01:24:13;;;;;;;;;;;;;;;10.67;41.75;99578.84;5034627;28;19987;-79
2023/01/07 01:26:38;;;;;;;;;;;;;;;10.65;41.71;99581.53;5016701;28;19948;-79
2023/01/07 01:29:04;;;;;;;;;;;;;;;10.64;41.72;99577.28;5016709;28;19952;-79
2023/01/07 01:31:29;;;;;;;;;;;;;;;10.60;41.83;99570.56;5035048;28;20273;-79
2023/01/07 01:33:55;;;;;;;;;;;;;;;10.57;41.70;99562.91;5033247;28;19955;-79
2023/01/07 01:36:20;;;;;;;;;;;;;;;10.56;41.90;99569.06;5016566;28;20372;-79
2023/01/07 01:38:45;;;;;;;;;;;;;;;10.53;41.88;99565.81;5017018;28;19921;-80
2023/01/07 01:41:12;;;;;;;;;;;;;;;10.50;41.89;99567.69;5037187;28;20296;-78
2023/01/07 01:43:38;;;;;;;;;;;;;;;10.49;41.76;99568.63;5020198;28;19917;-78
2023/01/07 01:46:05;;;;;;;;;;;;;;;10.47;41.75;99561.84;5054303;28;20383;-78
2023/01/07 01:48:31;;;;;;;;;;;;;;;10.44;42.03;99557.63;5036077;28;19917;-78
2023/01/07 01:50:56;;;;;;;;;;;;;;;10.42;41.99;99550.81;5035709;28;19924;-78
2023/01/07 01:53:29;;;;;;;;;;;;;;;10.41;42.06;99552.59;5036272;28;19920;-79
2023/01/07 01:55:56;;;;;;;;;;;;;;;10.38;42.11;99560.63;5036313;28;19978;-77
2023/01/07 01:58:28;;;;;;;;;;;;;;;10.38;42.21;99562.41;5019515;28;19920;-77
2023/01/07 02:00:54;;;;;;;;;;;;;;;10.35;42.17;99570.44;5019560;28;19923;-78
2023/01/07 02:03:19;;;;;;;;;;;;;;;10.34;42.23;99577.41;5018981;28;19916;-77
2023/01/07 02:05:44;;;;;;;;;;;;;;;10.31;42.21;99585.41;5019403;28;19929;-77
2023/01/07 02:08:10;;;;;;;;;;;;;;;10.30;42.38;99581.94;5019215;28;20450;-79
2023/01/07 02:10:35;;;;;;;;;;;;;;;10.27;42.40;99581.31;5019458;28;19966;-79
2023/01/07 02:13:07;;;;;;;;;;;;;;;10.25;42.53;99576.16;5019451;28;19920;-78
2023/01/07 02:15:45;;;;;;;;;;;;;;;10.24;42.53;99579.72;5035604;28;19925;-78
2023/01/07 02:18:10;;;;;;;;;;;;;;;10.21;42.55;99577.28;5035375;28;19923;-79
2023/01/07 02:20:46;;;;;;;;;;;;;;;10.19;42.56;99573.94;5035420;28;19916;-78
2023/01/07 02:23:30;;;;;;;;;;;;;;;10.17;42.54;99581.03;5019083;28;19948;-78
2023/01/07 02:26:28;;;;;;;;;;;;;;;10.16;42.67;99583.72;5053413;28;19916;-78
2023/01/07 02:28:59;;;;;;;;;;;;;;;10.14;42.85;99589.03;4937128;29;19954;-78
2023/01/07 02:31:45;;;;;;;;;;;;;;;10.14;42.71;99586.44;4953439;29;20032;-78
2023/01/07 02:34:14;;;;;;;;;;;;;;;10.13;42.89;99595.19;4937356;29;19918;-77
2023/01/07 02:36:58;;;;;;;;;;;;;;;10.10;42.90;99588.41;4921469;29;20066;-77
2023/01/07 02:39:26;;;;;;;;;;;;;;;10.10;42.92;99592.75;4952735;29;19992;-78
2023/01/07 02:42:12;;;;;;;;;;;;;;;10.09;42.96;99593.72;4952870;29;19980;-78
2023/01/07 02:44:38;;;;;;;;;;;;;;;10.08;43.24;99592.84;4921068;29;19918;-78
2023/01/07 02:47:29;;;;;;;;;;;;;;;10.07;42.88;99578.16;4953012;29;19957;-78
2023/01/07 02:49:55;;;;;;;;;;;;;;;10.06;43.16;99581.69;4950427;29;19934;-78
2023/01/07 02:52:23;;;;;;;;;;;;;;;10.05;43.16;99577.38;4920971;29;19919;-78
2023/01/07 02:54:59;;;;;;;;;;;;;;;10.05;43.08;99585.22;4936962;29;19925;-78
2023/01/07 02:57:27;;;;;;;;;;;;;;;10.04;43.21;99588.78;4921080;29;19941;-79
2023/01/07 02:59:52;;;;;;;;;;;;;;;10.03;43.27;99586.25;4953095;28;20043;-79
2023/01/07 03:02:36;;;;;;;;;;;;;;;10.01;43.34;99585.47;4952418;29;19919;-80
2023/01/07 03:05:04;;;;;;;;;;;;;;;9.99;43.43;99579.53;5009094;28;19917;-80
2023/01/07 03:07:30;;;;;;;;;;;;;;;9.99;43.43;99579.53;5034833;28;19917;-79
2023/01/07 03:09:58;;;;;;;;;;;;;;;9.98;43.49;99583.06;5052594;28;19917;-79
2023/01/07 03:12:44;;;;;;;;;;;;;;;9.96;43.54;99584.00;5034811;28;19917;-79
2023/01/07 03:15:24;;;;;;;;;;;;;;;9.95;43.56;99578.88;5052740;28;19923;-79
2023/01/07 03:17:50;;;;;;;;;;;;;;;9.93;43.44;99578.97;5018084;28;20383;-79
2023/01/07 03:20:15;;;;;;;;;;;;;;;9.91;43.60;99583.44;5034711;28;19924;-78
2023/01/07 03:22:40;;;;;;;;;;;;;;;9.91;43.47;99582.59;5034837;28;20020;-78
2023/01/07 03:25:06;;;;;;;;;;;;;;;9.90;43.38;99586.97;5034837;28;19960;-78
2023/01/07 03:27:32;;;;;;;;;;;;;;;9.90;43.64;99583.53;5018172;28;19960;-78
2023/01/07 03:29:57;;;;;;;;;;;;;;;9.89;43.72;99579.25;5034827;28;19924;-78
2023/01/07 03:32:30;;;;;;;;;;;;;;;9.88;43.79;99581.03;5052581;28;19916;-78
2023/01/07 03:34:55;;;;;;;;;;;;;;;9.88;43.86;99585.38;5052404;28;19917;-78
2023/01/07 03:37:22;;;;;;;;;;;;;;;9.86;43.81;99585.47;5052818;28;19928;-78
2023/01/07 03:39:47;;;;;;;;;;;;;;;9.85;43.93;99589.03;5017947;28;20323;-78
2023/01/07 03:44:57;;;;;;;;;;;;;;;9.84;44.00;99581.31;5037696;28;19924;-80
2023/01/07 03:47:22;;;;;;;;;;;;;;;9.83;43.92;99585.66;5018088;28;19920;-78
2023/01/07 03:49:47;;;;;;;;;;;;;;;9.81;43.99;99587.53;5034510;28;20013;-78
2023/01/07 03:52:12;;;;;;;;;;;;;;;9.80;44.02;99580.63;5018033;28;19917;-79
2023/01/07 03:54:38;;;;;;;;;;;;;;;9.77;43.77;99581.66;5052088;28;20391;-79
2023/01/07 03:57:03;;;;;;;;;;;;;;;9.77;43.83;99580.81;5017994;28;19978;-78
2023/01/07 03:59:28;;;;;;;;;;;;;;;9.76;43.97;99586.97;5018382;28;19943;-78
2023/01/07 04:01:54;;;;;;;;;;;;;;;9.74;43.93;99587.06;5034580;28;20391;-78
2023/01/07 04:04:19;;;;;;;;;;;;;;;9.74;44.12;99599.25;5052192;28;20344;-77
2023/01/07 04:06:45;;;;;;;;;;;;;;;9.72;43.89;99596.72;5034562;28;19983;-77
2023/01/07 04:09:10;;;;;;;;;;;;;;;9.70;44.01;99601.19;5035110;28;19916;-77
2023/01/07 04:11:36;;;;;;;;;;;;;;;9.70;44.19;99600.38;5018554;28;20273;-78
2023/01/07 04:14:01;;;;;;;;;;;;;;;9.67;44.17;99590.94;5055531;28;19982;-77
2023/01/07 04:16:26;;;;;;;;;;;;;;;9.64;44.04;99595.50;5037623;28;19917;-78
2023/01/07 04:18:51;;;;;;;;;;;;;;;9.61;44.13;99606.94;5020983;28;19971;-77
2023/01/07 04:21:17;;;;;;;;;;;;;;;9.57;44.09;99601.06;5021463;28;19916;-79
2023/01/07 04:23:42;;;;;;;;;;;;;;;9.56;44.29;99604.59;5022503;28;19920;-78
2023/01/07 04:26:07;;;;;;;;;;;;;;;9.56;44.03;99603.78;5021216;28;19917;-78
2023/01/07 04:28:33;;;;;;;;;;;;;;;9.54;44.42;99606.47;5037645;28;19924;-78
2023/01/07 04:30:58;;;;;;;;;;;;;;;9.52;44.32;99607.47;5021949;28;19952;-78
2023/01/07 04:33:23;;;;;;;;;;;;;;;9.50;44.04;99617.16;5021549;28;20273;-78
2023/01/07 04:35:49;;;;;;;;;;;;;;;9.48;44.27;99612.03;5055527;28;20000;-77
2023/01/07 04:38:14;;;;;;;;;;;;;;;9.45;44.27;99609.59;5037914;28;20467;-78
2023/01/07 04:40:39;;;;;;;;;;;;;;;9.43;44.08;99614.06;5055815;28;19925;-78
2023/01/07 04:43:05;;;;;;;;;;;;;;;9.41;44.32;99615.94;5037753;28;19970;-78
2023/01/07 04:45:30;;;;;;;;;;;;;;;9.39;44.29;99615.16;5021230;28;19917;-78
2023/01/07 04:47:55;;;;;;;;;;;;;;;9.38;44.25;99608.28;5055771;28;19921;-78
2023/01/07 04:50:21;;;;;;;;;;;;;;;9.35;44.17;99611.91;5037624;28;19990;-78
2023/01/07 04:52:46;;;;;;;;;;;;;;;9.34;44.20;99614.59;5037434;28;19917;-82
2023/01/07 04:55:12;;;;;;;;;;;;;;;9.31;44.39;99615.59;5037228;28;19921;-78
2023/01/07 04:57:37;;;;;;;;;;;;;;;9.28;44.56;99614.94;5037343;28;19916;-78
2023/01/07 05:00:02;;;;;;;;;;;;;;;9.27;44.43;99613.28;5020870;28;19923;-78
2023/01/07 05:02:29;;;;;;;;;;;;;;;9.26;44.37;99616.81;5055043;28;20019;-78
2023/01/07 05:04:54;;;;;;;;;;;;;;;9.23;44.62;99615.19;5037475;28;19955;-78
2023/01/07 05:07:20;;;;;;;;;;;;;;;9.21;44.72;99622.28;5036677;28;19959;-78
2023/01/07 05:09:45;;;;;;;;;;;;;;;9.20;44.73;99623.19;5036665;28;19917;-77
2023/01/07 05:12:10;;;;;;;;;;;;;;;9.18;44.73;99631.09;5036968;28;19917;-77
2023/01/07 05:14:35;;;;;;;;;;;;;;;9.17;44.77;99623.34;5020556;28;20292;-77
2023/01/07 05:17:01;;;;;;;;;;;;;;;9.17;44.94;99618.16;5020565;28;20307;-77
2023/01/07 05:19:26;;;;;;;;;;;;;;;9.15;44.87;99623.44;5036854;28;20300;-77
2023/01/07 05:21:51;;;;;;;;;;;;;;;9.15;44.89;99627.81;5036511;28;20422;-78
2023/01/07 05:24:17;;;;;;;;;;;;;;;9.14;44.89;99624.38;5054711;28;20403;-78
2023/01/07 05:26:42;;;;;;;;;;;;;;;9.15;44.61;99627.81;5037596;28;20345;-78
2023/01/07 05:29:08;;;;;;;;;;;;;;;9.12;44.98;99628.81;5036635;28;19983;-77
2023/01/07 05:31:33;;;;;;;;;;;;;;;9.13;44.91;99627.09;5036718;28;19921;-77
2023/01/07 05:33:59;;;;;;;;;;;;;;;9.12;45.07;99626.22;5036447;28;20364;-76
2023/01/07 05:36:24;;;;;;;;;;;;;;;9.13;45.23;99627.09;5036494;28;19917;-76
2023/01/07 05:38:49;;;;;;;;;;;;;;;9.11;44.91;99628.91;5037103;28;19959;-76
2023/01/07 05:41:15;;;;;;;;;;;;;;;9.10;45.23;99630.69;5020518;28;19924;-78
2023/01/07 05:43:40;;;;;;;;;;;;;;;9.10;44.92;99628.09;5036499;28;19916;-79
2023/01/07 05:46:05;;;;;;;;;;;;;;;9.12;45.26;99636.63;5019782;28;19917;-78
2023/01/07 05:48:31;;;;;;;;;;;;;;;9.11;45.10;99629.78;5019751;28;19921;-79
2023/01/07 05:50:56;;;;;;;;;;;;;;;9.12;45.20;99634.03;5036221;28;19920;-79
2023/01/07 05:53:21;;;;;;;;;;;;;;;9.12;45.24;99634.03;5035976;28;19931;-80
2023/01/07 05:55:47;;;;;;;;;;;;;;;9.16;45.16;99632.94;5019594;28;19917;-80
2023/01/07 05:58:12;;;;;;;;;;;;;;;9.29;44.75;99633.09;5036161;28;19924;-80
2023/01/07 06:00:37;;;;;;;;;;;;;;;9.52;44.49;99642.22;5019532;28;19916;-79
2023/01/07 06:03:03;;;;;;;;;;;;;;;9.80;43.91;99640.59;5019577;28;19917;-78
2023/01/07 06:05:28;;;;;;;;;;;;;;;10.10;43.50;99643.19;5036034;28;19940;-78
2023/01/07 06:07:54;;;;;;;;;;;;;;;10.47;42.84;99640.97;5036010;28;19917;-78
2023/01/07 06:10:19;;;;;;;;;;;;;;;10.85;41.98;99649.97;5036621;28;19916;-78
2023/01/07 06:12:44;;;;;;;;;;;;;;;11.31;41.35;99638.38;5035865;28;19960;-79
2023/01/07 06:15:10;;;;;;;;;;;;;;;11.90;40.26;99645.81;5019313;28;19916;-79
2023/01/07 06:17:35;;;;;;;;;;;;;;;12.54;39.09;99651.06;5036257;28;20269;-78
2023/01/07 06:20:00;;;;;;;;;;;;;;;13.28;38.04;99645.78;5053225;28;19923;-80
2023/01/07 06:22:26;;;;;;;;;;;;;;;14.09;36.53;99652.03;5035942;28;20415;-81
2023/01/07 06:24:51;;;;;;;;;;;;;;;15.00;34.76;99647.59;5035978;28;20376;-83
2023/01/07 06:27:16;;;;;;;;;;;;;;;15.93;33.03;99655.03;5025262;28;20084;-80
2023/01/07 06:29:42;;;;;;;;;;;;;;;16.84;31.33;99645.47;5033606;28;20015;-78
2023/01/07 06:32:07;;;;;;;;;;;;;;;17.70;30.13;99645.69;4999372;28;19925;-79
2023/01/07 06:34:32;;;;;;;;;;;;;;;18.46;28.78;99645.81;5015754;28;19928;-80
2023/01/07 06:36:58;;;;;;;;;;;;;;;19.11;27.94;99638.63;4998406;28;19924;-80
2023/01/07 06:39:23;;;;;;;;;;;;;;;19.68;27.17;99642.78;5015191;28;19921;-79
2023/01/07 06:41:48;;;;;;;;;;;;;;;20.11;26.58;99641.13;5015450;28;19996;-81
2023/01/07 06:44:14;;;;;;;;;;;;;;;20.44;26.14;99643.94;5015731;28;19925;-82
2023/01/07 06:46:39;;;;;;;;;;;;;;;20.64;25.86;99641.06;4999136;28;19921;-80
2023/01/07 06:49:04;;;;;;;;;;;;;;;20.68;25.69;99643.25;5015487;28;19952;-81
2023/01/07 06:51:30;;;;;;;;;;;;;;;20.58;26.02;99638.03;4999071;28;20015;-80
2023/01/07 06:53:55;;;;;;;;;;;;;;;20.59;26.11;99634.41;4998937;28;20014;-81
2023/01/07 06:56:20;;;;;;;;;;;;;;;20.70;25.83;99637.78;5015351;28;19955;-81
2023/01/07 06:58:45;;;;;;;;;;;;;;;20.83;25.85;99632.84;5015440;28;20000;-79
2023/01/07 07:01:11;;;;;;;;;;;;;;;21.02;25.73;99637.06;5015294;28;20394;-78
2023/01/07 07:03:36;;;;;;;;;;;;;;;21.20;25.53;99636.09;5015663;28;20447;-79
2023/01/07 07:06:01;;;;;;;;;;;;;;;21.39;25.40;99641.06;5015087;28;20000;-77
2023/01/07 07:08:27;;;;;;;;;;;;;;;21.62;24.70;99640.47;5015059;28;19917;-79
2023/01/07 07:10:52;;;;;;;;;;;;;;;21.72;24.82;99645.59;5032591;28;20023;-79
2023/01/07 07:13:17;;;;;;;;;;;;;;;21.69;24.58;99646.75;5015527;28;19967;-79
2023/01/07 07:15:43;;;;;;;;;;;;;;;21.90;24.51;99648.06;5032646;28;19917;-79
2023/01/07 07:18:08;;;;;;;;;;;;;;;22.01;24.30;99645.91;5032490;28;19917;-78
2023/01/07 07:20:33;;;;;;;;;;;;;;;22.17;23.77;99652.16;4998236;28;19924;-79
2023/01/07 07:23:00;;;;;;;;;;;;;;;22.40;23.64;99649.66;4998396;28;19924;-79
2023/01/07 07:25:25;;;;;;;;;;;;;;;22.64;23.16;99650.56;4998553;28;19964;-79
2023/01/07 07:27:50;;;;;;;;;;;;;;;22.89;22.65;99637.97;4998545;28;19960;-78
2023/01/07 07:30:16;;;;;;;;;;;;;;;23.16;22.25;99646.50;4998262;28;19923;-79
2023/01/07 07:32:43;;;;;;;;;;;;;;;23.36;22.06;99645.03;5014810;28;19917;-81
2023/01/07 07:35:08;;;;;;;;;;;;;;;23.64;21.87;99644.44;4997590;28;19924;-79
2023/01/07 07:37:33;;;;;;;;;;;;;;;23.82;21.84;99644.13;5015118;28;19917;-80
2023/01/07 07:39:59;;;;;;;;;;;;;;;23.94;21.66;99642.72;5032179;28;19944;-80
2023/01/07 07:42:24;;;;;;;;;;;;;;;24.07;21.50;99643.91;4998287;28;19921;-79
2023/01/07 07:44:49;;;;;;;;;;;;;;;24.23;21.28;99640.25;4998253;28;19917;-78
2023/01/07 07:47:15;;;;;;;;;;;;;;;24.41;21.05;99637.22;4998388;28;19917;-80
2023/01/07 07:49:40;;;;;;;;;;;;;;;24.45;21.13;99638.50;5018342;28;19971;-80
2023/01/07 07:52:05;;;;;;;;;;;;;;;24.70;20.94;99637.22;5001849;28;19917;-80
2023/01/07 07:54:31;;;;;;;;;;;;;;;24.97;20.37;99639.34;5036246;28;19917;-81
2023/01/07 07:56:57;;;;;;;;;;;;;;;25.15;20.30;99636.28;5018532;28;19917;-80
2023/01/07 07:59:22;;;;;;;;;;;;;;;25.35;19.87;99631.13;5002387;28;19921;-84
2023/01/07 08:01:49;;;;;;;;;;;;;;;25.43;19.42;99626.50;5018724;28;19918;-84
2023/01/07 08:04:14;;;;;;;;;;;;;;;25.51;19.19;99627.38;5024184;28;19917;-83
2023/01/07 08:06:40;;;;;;;;;;;;;;;25.56;19.13;99638.31;5038476;28;20364;-85
2023/01/07 08:09:05;;;;;;;;;;;;;;;25.54;19.13;99625.16;5021881;28;20013;-78
2023/01/07 08:11:31;;;;;;;;;;;;;;;25.60;19.11;99629.72;5056362;28;20376;-79
2023/01/07 08:13:56;;;;;;;;;;;;;;;25.74;19.29;99636.00;5021678;28;19928;-71
2023/01/07 08:16:21;;;;;;;;;;;;;;;25.86;19.07;99628.28;5055450;28;19927;-69
2023/01/07 08:18:46;;;;;;;;;;;;;;;25.91;19.56;99635.72;5055248;28;20439;-69
2023/01/07 08:21:12;;;;;;;;;;;;;;;26.00;19.15;99635.41;5036276;28;19920;-69
2023/01/07 08:23:37;;;;;;;;;;;;;;;26.12;19.02;99645.56;5055744;28;19917;-70
2023/01/07 08:26:02;;;;;;;;;;;;;;;26.21;19.19;99638.22;5055632;28;19920;-70
2023/01/07 08:28:28;;;;;;;;;;;;;;;26.27;19.33;99637.41;5056264;28;20300;-73
2023/01/07 08:30:55;;;;;;;;;;;;;;;26.21;26.91;99647.03;5045610;28;19917;-81
2023/01/07 08:33:21;;;;;;;;;;;;;;;26.33;27.80;99645.47;5056783;28;19939;-77
2023/01/07 08:35:46;;;;;;;;;;;;;;;26.34;27.36;99636.41;5021190;28;20316;-81
2023/01/07 08:38:11;;;;;;;;;;;;;;;26.40;27.78;99642.00;5037579;28;19917;-76
2023/01/07 08:40:36;;;;;;;;;;;;;;;26.38;26.37;99642.22;5037740;28;20288;-77
2023/01/07 08:43:03;;;;;;;;;;;;;;;26.37;24.90;99640.53;5020847;28;19921;-79
2023/01/07 08:45:28;;;;;;;;;;;;;;;26.36;25.59;99645.09;5020798;28;19917;-88
2023/01/07 08:47:57;;;;;;;;;;;;;;;26.49;26.22;99644.31;5020994;28;19924;-86
2023/01/07 08:50:29;;;;;;;;;;;;;;;26.53;26.19;99642.91;5055403;28;19978;-76
2023/01/07 08:52:54;;;;;;;;;;;;;;;26.57;26.12;99642.47;5037521;28;19917;-79
2023/01/07 08:55:19;;;;;;;;;;;;;;;26.53;25.92;99631.34;5037690;28;20000;-77
2023/01/07 08:57:46;;;;;;;;;;;;;;;26.54;25.56;99628.47;5037257;28;19975;-79
2023/01/07 09:00:12;;;;;;;;;;;;;;;26.62;24.80;99627.47;5007342;28;20011;-79
2023/01/07 09:02:37;;;;;;;;;;;;;;;26.63;24.21;99630.97;5027973;28;20419;-79
2023/01/07 09:05:04;;;;;;;;;;;;;;;26.76;23.77;99625.72;5027248;28;19921;-81
2023/01/07 09:07:32;;;;;;;;;;;;;;;26.88;22.81;99626.78;5025137;28;19921;-80
2023/01/07 09:09:57;;;;;;;;;;;;;;;27.03;22.78;99620.44;5016963;28;19921;-84
2023/01/07 09:12:22;;;;;;;;;;;;;;;27.17;23.21;99608.72;5027691;28;19928;-81
2023/01/07 09:14:48;;;;;;;;;;;;;;;27.36;22.34;99617.00;5005240;28;19924;-81
2023/01/07 09:17:13;;;;;;;;;;;;;;;27.64;22.58;99603.38;5044363;28;19925;-83
2023/01/07 09:19:39;;;;;;;;;;;;;;;27.76;21.41;99604.41;5053134;28;19917;-78
2023/01/07 09:22:04;;;;;;;;;;;;;;;27.87;20.07;99602.13;5052807;28;20403;-77
2023/01/07 09:24:29;;;;;;;;;;;;;;;28.01;19.22;99592.22;5034905;28;19917;-78
2023/01/07 09:26:55;;;;;;;;;;;;;;;28.16;18.41;99590.09;5018163;28;19916;-78
2023/01/07 09:29:20;;;;;;;;;;;;;;;28.26;19.41;99598.56;5051827;28;20023;-82
2023/01/07 09:31:45;;;;;;;;;;;;;;;28.34;20.06;99589.44;5035126;28;19921;-76
2023/01/07 09:34:11;;;;;;;;;;;;;;;28.18;23.17;99587.22;5035085;28;20379;-76
2023/01/07 09:36:36;;;;;;;;;;;;;;;28.07;23.87;99577.94;5034159;28;20436;-82
2023/01/07 09:39:01;;;;;;;;;;;;;;;28.00;22.57;99564.56;5034589;28;19929;-78
2023/01/07 09:41:45;;;;;;;;;;;;;;;28.02;21.59;99567.03;5052336;28;19927;-72
2023/01/07 09:44:23;;;;;;;;;;;;;;;28.42;22.45;99553.47;5052049;28;19924;-76
2023/01/07 09:46:48;;;;;;;;;;;;;;;29.45;23.75;99554.28;5034169;28;20480;-77
2023/01/07 09:49:17;;;;;;;;;;;;;;;30.74;20.00;99548.91;5034843;28;19920;-78
2023/01/07 09:51:43;;;;;;;;;;;;;;;32.01;19.81;99545.97;5018359;28;20304;-77
2023/01/07 09:54:16;;;;;;;;;;;;;;;32.97;18.74;99543.50;5035214;28;20384;-80
2023/01/07 09:56:41;;;;;;;;;;;;;;;33.68;17.26;99536.72;5017743;28;19987;-82
2023/01/07 09:59:08;;;;;;;;;;;;;;;34.58;16.63;99531.88;5017012;28;19971;-80
2023/01/07 10:01:43;;;;;;;;;;;;;;;34.99;16.92;99531.47;5017601;28;19982;-81
2023/01/07 10:04:14;;;;;;;;;;;;;;;35.56;16.50;99529.16;5052306;28;19917;-77
2023/01/07 10:06:39;;;;;;;;;;;;;;;36.04;14.95;99527.22;5052026;28;19917;-76
2023/01/07 10:09:14;;;;;;;;;;;;;;;35.94;13.78;99519.06;5033986;28;20443;-78
2023/01/07 10:11:44;;;;;;;;;;;;;;;36.16;13.46;99516.94;5051401;28;19923;-79
2023/01/07 10:14:19;;;;;;;;;;;;;;;36.53;12.46;99509.72;5031512;28;19966;-74
2023/01/07 10:16:48;;;;;;;;;;;;;;;36.53;12.18;99501.56;5030853;28;21229;-73
2023/01/07 10:19:17;;;;;;;;;;;;;;;36.38;11.85;99503.16;5000084;28;20427;-73
2023/01/07 10:21:45;;;;;;;;;;;;;;;36.00;12.10;99499.78;5051174;28;19940;-74
2023/01/07 10:24:31;;;;;;;;;;;;;;;35.49;11.92;99500.34;5017464;28;19927;-74
2023/01/07 10:27:09;;;;;;;;;;;;;;;34.66;12.44;99491.81;5050653;28;19917;-76
2023/01/07 10:30:07;;;;;;;;;;;;;;;33.79;13.88;99487.09;5017068;28;19923;-75
2023/01/07 10:32:32;;;;;;;;;;;;;;;32.91;13.98;99485.00;4950964;28;19918;-77
2023/01/07 10:34:58;;;;;;;;;;;;;;;32.32;15.53;99481.75;4953436;29;19918;-76
2023/01/07 10:37:33;;;;;;;;;;;;;;;31.66;15.82;99473.94;4952239;29;20373;-77
2023/01/07 10:40:11;;;;;;;;;;;;;;;30.94;16.52;99469.59;4954485;28;19922;-77
2023/01/07 10:42:48;;;;;;;;;;;;;;;30.44;22.49;99474.31;4954659;28;19926;-77
2023/01/07 10:45:23;;;;;;;;;;;;;;;29.90;19.18;99473.31;4965870;28;20408;-77
2023/01/07 10:48:04;;;;;;;;;;;;;;;29.41;18.59;99468.66;4955497;28;20409;-76
2023/01/07 10:50:29;;;;;;;;;;;;;;;29.12;18.39;99467.47;4971246;28;20443;-74
2023/01/07 10:52:57;;;;;;;;;;;;;;;28.90;17.96;99468.91;4951322;28;19946;-81
2023/01/07 10:55:30;;;;;;;;;;;;;;;28.56;18.04;99460.22;4951927;29;19923;-76
2023/01/07 10:57:55;;;;;;;;;;;;;;;28.27;17.92;99454.41;4952329;29;20294;-73
2023/01/07 11:00:20;;;;;;;;;;;;;;;28.00;17.95;99457.22;4952947;29;19918;-75
2023/01/07 11:02:50;;;;;;;;;;;;;;;27.80;18.32;99449.25;4952899;29;20012;-74
2023/01/07 11:05:19;;;;;;;;;;;;;;;27.54;17.95;99445.59;4936663;29;19969;-74
2023/01/07 11:07:57;;;;;;;;;;;;;;;27.30;18.40;99444.38;4977186;28;20007;-74
2023/01/07 11:10:24;;;;;;;;;;;;;;;27.06;18.71;99437.84;5015019;28;20015;-74
2023/01/07 11:12:52;;;;;;;;;;;;;;;26.81;18.38;99434.97;4998719;28;19917;-75
2023/01/07 11:15:19;;;;;;;;;;;;;;;26.63;18.51;99430.16;5032784;28;19917;-74
2023/01/07 11:17:45;;;;;;;;;;;;;;;26.39;18.91;99428.91;5014653;28;19917;-75
2023/01/07 11:20:11;;;;;;;;;;;;;;;26.20;18.79;99425.97;5015035;28;20411;-74
2023/01/07 11:22:37;;;;;;;;;;;;;;;25.96;19.01;99428.13;4998228;28;19917;-74
2023/01/07 11:25:20;;;;;;;;;;;;;;;25.64;19.21;99426.97;4998626;28;19932;-74
2023/01/07 11:27:46;;;;;;;;;;;;;;;25.50;19.70;99425.28;4998692;28;20347;-74
2023/01/07 11:30:23;;;;;;;;;;;;;;;25.38;19.73;99419.63;4999112;28;19917;-74
2023/01/07 11:32:56;;;;;;;;;;;;;;;25.13;20.05;99413.91;5026333;28;19986;-74
2023/01/07 11:35:21;;;;;;;;;;;;;;;24.94;20.29;99413.59;5034594;28;19921;-74
2023/01/07 11:37:47;;;;;;;;;;;;;;;24.66;20.64;99411.69;5034169;28;19917;-74
2023/01/07 11:40:12;;;;;;;;;;;;;;;24.62;20.85;99415.78;5034426;28;19960;-73
2023/01/07 11:42:53;;;;;;;;;;;;;;;24.42;21.20;99407.56;5052405;28;19950;-73
2023/01/07 11:45:18;;;;;;;;;;;;;;;24.23;21.27;99397.50;5052293;28;19923;-75
2023/01/07 11:48:02;;;;;;;;;;;;;;;23.98;21.66;99398.69;5034445;28;19916;-73
2023/01/07 11:50:33;;;;;;;;;;;;;;;23.66;21.88;99387.41;5034375;28;19923;-74
2023/01/07 11:52:59;;;;;;;;;;;;;;;23.52;22.11;99390.09;5034861;28;19924;-73
2023/01/07 11:55:25;;;;;;;;;;;;;;;23.29;22.30;99386.53;5017572;28;19947;-75
2023/01/07 11:57:53;;;;;;;;;;;;;;;23.16;22.54;99389.00;5018074;28;20347;-74
2023/01/07 12:00:19;;;;;;;;;;;;;;;23.02;22.68;99382.59;5034364;28;19928;-74
2023/01/07 12:02:44;;;;;;;;;;;;;;;22.92;22.38;99387.38;5033857;28;19917;-74
2023/01/07 12:05:17;;;;;;;;;;;;;;;22.88;22.82;99378.94;5052499;28;20301;-74
2023/01/07 12:07:46;;;;;;;;;;;;;;;22.79;22.91;99379.16;5017607;28;20019;-74
2023/01/07 12:10:27;;;;;;;;;;;;;;;22.56;22.72;99380.03;5017702;28;19916;-75
2023/01/07 12:12:52;;;;;;;;;;;;;;;22.28;23.27;99375.25;5034242;28;19931;-74
2023/01/07 12:15:18;;;;;;;;;;;;;;;22.03;23.49;99367.44;5034293;28;19925;-73
2023/01/07 12:17:47;;;;;;;;;;;;;;;21.84;23.80;99367.88;5017787;28;20280;-73
2023/01/07 12:20:16;;;;;;;;;;;;;;;21.69;23.81;99368.59;5017660;28;20268;-74
2023/01/07 12:22:47;;;;;;;;;;;;;;;21.52;23.91;99364.34;5052126;28;19917;-74
2023/01/07 12:25:22;;;;;;;;;;;;;;;21.27;24.33;99366.28;5033874;28;19921;-75
2023/01/07 12:28:02;;;;;;;;;;;;;;;21.05;24.70;99359.88;5052178;28;19917;-74
2023/01/07 12:30:33;;;;;;;;;;;;;;;20.92;24.74;99363.00;5051953;28;20303;-73
2023/01/07 12:33:17;;;;;;;;;;;;;;;20.75;24.91;99355.09;5051944;28;20325;-74
2023/01/07 12:35:43;;;;;;;;;;;;;;;20.54;25.02;99350.28;5055558;28;19925;-75
2023/01/07 12:38:25;;;;;;;;;;;;;;;20.39;25.25;99354.56;5037809;28;20016;-74
2023/01/07 12:40:51;;;;;;;;;;;;;;;20.15;25.47;99356.22;5034027;28;19925;-75
2023/01/07 12:43:33;;;;;;;;;;;;;;;19.94;25.92;99355.84;5017682;28;20350;-73
2023/01/07 12:45:59;;;;;;;;;;;;;;;19.69;26.14;99361.06;5034748;28;19917;-74
2023/01/07 12:48:34;;;;;;;;;;;;;;;19.51;26.37;99361.13;5017385;28;19917;-75
2023/01/07 12:50:59;;;;;;;;;;;;;;;19.36;37.91;99360.91;5021779;28;19922;-75
2023/01/07 12:53:38;;;;;;;;;;;;;;;19.34;40.49;99363.72;4997604;28;19924;-75
2023/01/07 12:56:10;;;;;;;;;;;;;;;19.33;41.10;99358.59;5014181;28;19921;-75